sensor_id;sensor_type;location;lat;lon;timestamp;temperature;humidity
31759;DHT22;36334;51.366;0.020;2022-07-01T00:02:19;12.80;99.90
31759;DHT22;36334;51.366;0.020;2022-07-01T00:05:05;12.90;99.90
31759;DHT22;36334;51.366;0.020;2022-07-01T00:08:04;12.80;99.90
31759;DHT22;36334;51.366;0.020;2022-07-01T00:10:53;12.80;99.90
31759;DHT22;36334;51.366;0.020;2022-07-01T00:13:39;12.90;99.90
31759;DHT22;36334;51.366;0.020;2022-07-01T00:16:24;12.80;99.90
31759;DHT22;36334;51.366;0.020;2022-07-01T00:19:11;12.80;99.90
31759;DHT22;36334;51.366;0.020;2022-07-01T00:21:57;12.80;99.90
31759;DHT22;36334;51.366;0.020;2022-07-01T00:24:45;12.80;99.90
31759;DHT22;36334;51.366;0.020;2022-07-01T00:27:31;12.80;99.90
31759;DHT22;36334;51.366;0.020;2022-07-01T00:30:17;12.70;99.90
31759;DHT22;36334;51.366;0.020;2022-07-01T00:33:04;12.70;99.90
31759;DHT22;36334;51.366;0.020;2022-07-01T00:35:50;12.70;99.90
31759;DHT22;36334;51.366;0.020;2022-07-01T00:38:38;12.70;99.90
31759;DHT22;36334;51.366;0.020;2022-07-01T00:41:24;12.70;99.90
31759;DHT22;36334;51.366;0.020;2022-07-01T00:44:20;12.70;99.90
31759;DHT22;36334;51.366;0.020;2022-07-01T00:47:09;12.70;99.90
31759;DHT22;36334;51.366;0.020;2022-07-01T00:49:57;12.70;99.90
31759;DHT22;36334;51.366;0.020;2022-07-01T00:52:44;12.70;99.90
31759;DHT22;36334;51.366;0.020;2022-07-01T00:55:30;12.70;99.90
31759;DHT22;36334;51.366;0.020;2022-07-01T00:58:18;12.80;99.90
31759;DHT22;36334;51.366;0.020;2022-07-01T01:01:04;12.80;99.90
31759;DHT22;36334;51.366;0.020;2022-07-01T01:03:51;12.80;99.90
31759;DHT22;36334;51.366;0.020;2022-07-01T01:06:37;12.80;99.90
31759;DHT22;36334;51.366;0.020;2022-07-01T01:09:23;12.80;99.90
31759;DHT22;36334;51.366;0.020;2022-07-01T01:12:09;12.80;99.90
31759;DHT22;36334;51.366;0.020;2022-07-01T01:14:57;12.80;99.90
31759;DHT22;36334;51.366;0.020;2022-07-01T01:17:43;12.80;99.90
31759;DHT22;36334;51.366;0.020;2022-07-01T01:20:38;12.80;99.90
31759;DHT22;36334;51.366;0.020;2022-07-01T01:23:25;12.80;99.90
31759;DHT22;36334;51.366;0.020;2022-07-01T01:26:19;12.80;99.90
31759;DHT22;36334;51.366;0.020;2022-07-01T01:29:05;12.80;99.90
31759;DHT22;36334;51.366;0.020;2022-07-01T01:31:53;12.80;99.90
31759;DHT22;36334;51.366;0.020;2022-07-01T01:34:39;12.70;99.90
31759;DHT22;36334;51.366;0.020;2022-07-01T01:37:26;12.80;99.90
31759;DHT22;36334;51.366;0.020;2022-07-01T01:40:14;12.80;99.90
31759;DHT22;36334;51.366;0.020;2022-07-01T01:43:00;12.80;99.90
31759;DHT22;36334;51.366;0.020;2022-07-01T01:45:46;12.80;99.90
31759;DHT22;36334;51.366;0.020;2022-07-01T01:48:33;12.80;99.90
31759;DHT22;36334;51.366;0.020;2022-07-01T01:51:19;12.80;99.90
31759;DHT22;36334;51.366;0.020;2022-07-01T01:54:06;12.80;99.90
31759;DHT22;36334;51.366;0.020;2022-07-01T01:56:52;12.90;99.90
31759;DHT22;36334;51.366;0.020;2022-07-01T01:59:38;12.90;99.90
31759;DHT22;36334;51.366;0.020;2022-07-01T02:02:25;12.90;99.90
31759;DHT22;36334;51.366;0.020;2022-07-01T02:05:14;12.90;99.90
31759;DHT22;36334;51.366;0.020;2022-07-01T02:08:01;13.00;99.90
31759;DHT22;36334;51.366;0.020;2022-07-01T02:10:47;12.90;99.90
31759;DHT22;36334;51.366;0.020;2022-07-01T02:13:39;12.90;99.90
31759;DHT22;36334;51.366;0.020;2022-07-01T02:16:25;12.90;99.90
31759;DHT22;36334;51.366;0.020;2022-07-01T02:19:11;12.90;99.90
31759;DHT22;36334;51.366;0.020;2022-07-01T02:21:58;12.90;99.90
31759;DHT22;36334;51.366;0.020;2022-07-01T02:24:45;12.90;99.90
31759;DHT22;36334;51.366;0.020;2022-07-01T02:27:31;12.90;99.90
31759;DHT22;36334;51.366;0.020;2022-07-01T02:30:17;12.90;99.90
31759;DHT22;36334;51.366;0.020;2022-07-01T02:33:05;12.90;99.90
31759;DHT22;36334;51.366;0.020;2022-07-01T02:35:54;12.90;99.90
31759;DHT22;36334;51.366;0.020;2022-07-01T02:38:40;12.90;99.90
31759;DHT22;36334;51.366;0.020;2022-07-01T02:41:26;12.90;99.90
31759;DHT22;36334;51.366;0.020;2022-07-01T02:44:11;12.90;99.90
31759;DHT22;36334;51.366;0.020;2022-07-01T02:46:57;12.90;99.90
31759;DHT22;36334;51.366;0.020;2022-07-01T02:49:44;12.90;99.90
31759;DHT22;36334;51.366;0.020;2022-07-01T02:52:31;12.90;99.90
31759;DHT22;36334;51.366;0.020;2022-07-01T02:55:18;12.90;99.90
31759;DHT22;36334;51.366;0.020;2022-07-01T02:58:04;12.80;99.90
31759;DHT22;36334;51.366;0.020;2022-07-01T03:00:51;12.90;99.90
31759;DHT22;36334;51.366;0.020;2022-07-01T03:03:38;12.90;99.90
31759;DHT22;36334;51.366;0.020;2022-07-01T03:06:24;12.90;99.90
31759;DHT22;36334;51.366;0.020;2022-07-01T03:09:10;12.90;99.90
31759;DHT22;36334;51.366;0.020;2022-07-01T03:11:56;12.80;99.90
31759;DHT22;36334;51.366;0.020;2022-07-01T03:14:43;12.90;99.90
31759;DHT22;36334;51.366;0.020;2022-07-01T03:17:30;12.80;99.90
31759;DHT22;36334;51.366;0.020;2022-07-01T03:20:23;12.80;99.90
31759;DHT22;36334;51.366;0.020;2022-07-01T03:23:09;12.80;99.90
31759;DHT22;36334;51.366;0.020;2022-07-01T03:25:55;12.80;99.90
31759;DHT22;36334;51.366;0.020;2022-07-01T03:28:41;12.80;99.90
31759;DHT22;36334;51.366;0.020;2022-07-01T03:31:27;12.80;99.90
31759;DHT22;36334;51.366;0.020;2022-07-01T03:34:13;12.80;99.90
31759;DHT22;36334;51.366;0.020;2022-07-01T03:36:59;12.80;99.90
31759;DHT22;36334;51.366;0.020;2022-07-01T03:39:46;12.80;99.90
31759;DHT22;36334;51.366;0.020;2022-07-01T03:42:32;12.80;99.90
31759;DHT22;36334;51.366;0.020;2022-07-01T03:45:18;12.70;99.90
31759;DHT22;36334;51.366;0.020;2022-07-01T03:48:04;12.70;99.90
31759;DHT22;36334;51.366;0.020;2022-07-01T03:50:50;12.70;99.90
31759;DHT22;36334;51.366;0.020;2022-07-01T03:53:36;12.60;99.90
31759;DHT22;36334;51.366;0.020;2022-07-01T03:56:40;12.60;99.90
31759;DHT22;36334;51.366;0.020;2022-07-01T03:59:28;12.60;99.90
31759;DHT22;36334;51.366;0.020;2022-07-01T04:02:14;12.60;99.90
31759;DHT22;36334;51.366;0.020;2022-07-01T04:05:00;12.60;99.90
31759;DHT22;36334;51.366;0.020;2022-07-01T04:07:46;12.60;99.90
31759;DHT22;36334;51.366;0.020;2022-07-01T04:10:33;12.60;99.90
31759;DHT22;36334;51.366;0.020;2022-07-01T04:13:20;12.60;99.90
31759;DHT22;36334;51.366;0.020;2022-07-01T04:16:20;12.60;99.90
31759;DHT22;36334;51.366;0.020;2022-07-01T04:19:07;12.70;99.90
31759;DHT22;36334;51.366;0.020;2022-07-01T04:21:53;12.70;99.90
31759;DHT22;36334;51.366;0.020;2022-07-01T04:24:59;12.80;99.90
31759;DHT22;36334;51.366;0.020;2022-07-01T04:27:46;12.80;99.90
31759;DHT22;36334;51.366;0.020;2022-07-01T04:30:32;12.80;99.90
31759;DHT22;36334;51.366;0.020;2022-07-01T04:33:18;12.90;99.90
31759;DHT22;36334;51.366;0.020;2022-07-01T04:36:05;12.80;99.90
31759;DHT22;36334;51.366;0.020;2022-07-01T04:38:52;12.90;99.90
31759;DHT22;36334;51.366;0.020;2022-07-01T04:41:38;13.00;99.90
31759;DHT22;36334;51.366;0.020;2022-07-01T04:44:46;13.00;99.90
31759;DHT22;36334;51.366;0.020;2022-07-01T04:47:32;13.10;99.90
31759;DHT22;36334;51.366;0.020;2022-07-01T04:50:19;13.10;99.90
31759;DHT22;36334;51.366;0.020;2022-07-01T04:53:07;13.10;99.90
31759;DHT22;36334;51.366;0.020;2022-07-01T04:55:53;13.20;99.90
31759;DHT22;36334;51.366;0.020;2022-07-01T04:58:39;13.20;99.90
31759;DHT22;36334;51.366;0.020;2022-07-01T05:01:26;13.30;99.90
31759;DHT22;36334;51.366;0.020;2022-07-01T05:04:12;13.40;99.90
31759;DHT22;36334;51.366;0.020;2022-07-01T05:06:59;13.40;99.90
31759;DHT22;36334;51.366;0.020;2022-07-01T05:09:45;13.50;99.90
31759;DHT22;36334;51.366;0.020;2022-07-01T05:12:31;13.60;99.90
31759;DHT22;36334;51.366;0.020;2022-07-01T05:15:18;13.60;99.90
31759;DHT22;36334;51.366;0.020;2022-07-01T05:18:04;13.70;99.90
31759;DHT22;36334;51.366;0.020;2022-07-01T05:21:08;13.70;99.90
31759;DHT22;36334;51.366;0.020;2022-07-01T05:24:13;13.80;99.90
31759;DHT22;36334;51.366;0.020;2022-07-01T05:27:00;13.90;99.90
31759;DHT22;36334;51.366;0.020;2022-07-01T05:29:46;14.00;99.90
31759;DHT22;36334;51.366;0.020;2022-07-01T05:32:32;14.00;99.90
31759;DHT22;36334;51.366;0.020;2022-07-01T05:35:18;14.10;99.90
31759;DHT22;36334;51.366;0.020;2022-07-01T05:38:07;14.30;99.90
31759;DHT22;36334;51.366;0.020;2022-07-01T05:40:53;14.30;99.90
31759;DHT22;36334;51.366;0.020;2022-07-01T05:43:39;14.30;99.90
31759;DHT22;36334;51.366;0.020;2022-07-01T05:46:25;14.40;99.90
31759;DHT22;36334;51.366;0.020;2022-07-01T05:49:11;14.40;99.90
31759;DHT22;36334;51.366;0.020;2022-07-01T05:52:03;14.50;99.90
31759;DHT22;36334;51.366;0.020;2022-07-01T05:54:49;14.60;99.90
31759;DHT22;36334;51.366;0.020;2022-07-01T05:57:36;14.70;99.90
31759;DHT22;36334;51.366;0.020;2022-07-01T06:00:22;14.70;99.90
31759;DHT22;36334;51.366;0.020;2022-07-01T06:03:15;14.70;99.90
31759;DHT22;36334;51.366;0.020;2022-07-01T06:06:01;14.80;99.90
31759;DHT22;36334;51.366;0.020;2022-07-01T06:08:47;14.90;99.90
31759;DHT22;36334;51.366;0.020;2022-07-01T06:11:33;14.90;99.90
31759;DHT22;36334;51.366;0.020;2022-07-01T06:14:19;14.90;99.90
31759;DHT22;36334;51.366;0.020;2022-07-01T06:17:06;14.90;99.90
31759;DHT22;36334;51.366;0.020;2022-07-01T06:19:51;14.90;99.90
31759;DHT22;36334;51.366;0.020;2022-07-01T06:22:39;14.90;99.90
31759;DHT22;36334;51.366;0.020;2022-07-01T06:25:25;14.80;99.90
31759;DHT22;36334;51.366;0.020;2022-07-01T06:28:11;14.80;99.90
31759;DHT22;36334;51.366;0.020;2022-07-01T06:30:57;14.80;99.90
31759;DHT22;36334;51.366;0.020;2022-07-01T06:33:44;14.80;99.90
31759;DHT22;36334;51.366;0.020;2022-07-01T06:36:31;14.80;99.90
31759;DHT22;36334;51.366;0.020;2022-07-01T06:39:17;14.80;99.90
31759;DHT22;36334;51.366;0.020;2022-07-01T06:42:05;14.90;99.90
31759;DHT22;36334;51.366;0.020;2022-07-01T06:44:51;14.90;99.90
31759;DHT22;36334;51.366;0.020;2022-07-01T06:47:37;14.90;99.90
31759;DHT22;36334;51.366;0.020;2022-07-01T06:50:23;15.00;99.90
31759;DHT22;36334;51.366;0.020;2022-07-01T06:53:09;15.00;99.90
31759;DHT22;36334;51.366;0.020;2022-07-01T06:55:57;15.00;99.90
31759;DHT22;36334;51.366;0.020;2022-07-01T06:58:43;15.10;99.90
31759;DHT22;36334;51.366;0.020;2022-07-01T07:01:30;15.10;99.90
31759;DHT22;36334;51.366;0.020;2022-07-01T07:04:16;15.20;99.90
31759;DHT22;36334;51.366;0.020;2022-07-01T07:07:09;15.20;99.90
31759;DHT22;36334;51.366;0.020;2022-07-01T07:09:55;15.30;99.90
31759;DHT22;36334;51.366;0.020;2022-07-01T07:12:43;15.30;99.90
31759;DHT22;36334;51.366;0.020;2022-07-01T07:15:29;15.40;99.90
31759;DHT22;36334;51.366;0.020;2022-07-01T07:18:15;15.50;99.90
31759;DHT22;36334;51.366;0.020;2022-07-01T07:21:02;15.60;99.90
31759;DHT22;36334;51.366;0.020;2022-07-01T07:23:48;15.70;99.90
31759;DHT22;36334;51.366;0.020;2022-07-01T07:26:37;15.70;99.90
31759;DHT22;36334;51.366;0.020;2022-07-01T07:29:24;15.80;99.90
31759;DHT22;36334;51.366;0.020;2022-07-01T07:32:09;15.80;99.90
31759;DHT22;36334;51.366;0.020;2022-07-01T07:34:56;15.80;99.90
31759;DHT22;36334;51.366;0.020;2022-07-01T07:37:42;15.80;99.90
31759;DHT22;36334;51.366;0.020;2022-07-01T07:40:28;15.90;99.90
31759;DHT22;36334;51.366;0.020;2022-07-01T07:43:15;16.00;99.90
31759;DHT22;36334;51.366;0.020;2022-07-01T07:46:02;16.10;99.90
31759;DHT22;36334;51.366;0.020;2022-07-01T07:48:49;16.10;99.90
31759;DHT22;36334;51.366;0.020;2022-07-01T07:51:35;16.20;99.90
31759;DHT22;36334;51.366;0.020;2022-07-01T07:54:22;16.20;99.90
31759;DHT22;36334;51.366;0.020;2022-07-01T07:57:08;16.30;99.90
31759;DHT22;36334;51.366;0.020;2022-07-01T07:59:54;16.40;99.90
31759;DHT22;36334;51.366;0.020;2022-07-01T08:02:42;16.50;99.90
31759;DHT22;36334;51.366;0.020;2022-07-01T08:05:28;16.60;99.90
31759;DHT22;36334;51.366;0.020;2022-07-01T08:08:14;16.80;99.90
31759;DHT22;36334;51.366;0.020;2022-07-01T08:11:07;17.00;99.90
31759;DHT22;36334;51.366;0.020;2022-07-01T08:13:53;17.20;99.90
31759;DHT22;36334;51.366;0.020;2022-07-01T08:16:40;17.40;99.90
31759;DHT22;36334;51.366;0.020;2022-07-01T08:19:26;17.60;99.90
31759;DHT22;36334;51.366;0.020;2022-07-01T08:22:12;17.70;99.90
31759;DHT22;36334;51.366;0.020;2022-07-01T08:24:59;17.80;99.90
31759;DHT22;36334;51.366;0.020;2022-07-01T08:27:45;17.90;99.90
31759;DHT22;36334;51.366;0.020;2022-07-01T08:30:31;18.00;99.90
31759;DHT22;36334;51.366;0.020;2022-07-01T08:33:21;18.00;99.90
31759;DHT22;36334;51.366;0.020;2022-07-01T08:36:09;18.00;99.90
31759;DHT22;36334;51.366;0.020;2022-07-01T08:38:56;18.00;99.90
31759;DHT22;36334;51.366;0.020;2022-07-01T08:41:42;18.00;99.90
31759;DHT22;36334;51.366;0.020;2022-07-01T08:44:31;17.90;99.90
31759;DHT22;36334;51.366;0.020;2022-07-01T08:47:17;17.80;99.90
31759;DHT22;36334;51.366;0.020;2022-07-01T08:50:04;17.80;99.90
31759;DHT22;36334;51.366;0.020;2022-07-01T08:52:50;17.90;99.90
31759;DHT22;36334;51.366;0.020;2022-07-01T08:55:36;18.00;99.90
31759;DHT22;36334;51.366;0.020;2022-07-01T08:58:42;18.10;99.90
31759;DHT22;36334;51.366;0.020;2022-07-01T09:01:32;18.10;99.90
31759;DHT22;36334;51.366;0.020;2022-07-01T09:04:19;18.00;99.90
31759;DHT22;36334;51.366;0.020;2022-07-01T09:07:08;17.90;99.90
31759;DHT22;36334;51.366;0.020;2022-07-01T09:09:54;18.00;99.90
31759;DHT22;36334;51.366;0.020;2022-07-01T09:12:41;18.10;99.90
31759;DHT22;36334;51.366;0.020;2022-07-01T09:15:30;18.20;99.90
31759;DHT22;36334;51.366;0.020;2022-07-01T09:18:16;18.30;99.90
31759;DHT22;36334;51.366;0.020;2022-07-01T09:21:08;18.50;99.90
31759;DHT22;36334;51.366;0.020;2022-07-01T09:23:54;18.70;99.80
31759;DHT22;36334;51.366;0.020;2022-07-01T09:26:40;18.70;99.50
31759;DHT22;36334;51.366;0.020;2022-07-01T09:29:40;18.70;99.10
31759;DHT22;36334;51.366;0.020;2022-07-01T09:32:26;18.60;99.10
31759;DHT22;36334;51.366;0.020;2022-07-01T09:35:22;18.50;99.10
31759;DHT22;36334;51.366;0.020;2022-07-01T09:38:14;18.50;99.30
31759;DHT22;36334;51.366;0.020;2022-07-01T09:41:18;18.40;99.20
31759;DHT22;36334;51.366;0.020;2022-07-01T09:44:14;18.50;99.10
31759;DHT22;36334;51.366;0.020;2022-07-01T09:47:00;18.70;98.90
31759;DHT22;36334;51.366;0.020;2022-07-01T09:49:48;18.90;98.40
31759;DHT22;36334;51.366;0.020;2022-07-01T09:52:35;19.00;98.30
31759;DHT22;36334;51.366;0.020;2022-07-01T09:55:23;19.30;98.10
31759;DHT22;36334;51.366;0.020;2022-07-01T09:58:09;19.50;97.70
31759;DHT22;36334;51.366;0.020;2022-07-01T10:00:56;19.70;97.40
31759;DHT22;36334;51.366;0.020;2022-07-01T10:03:45;19.80;97.00
31759;DHT22;36334;51.366;0.020;2022-07-01T10:06:42;19.90;96.70
31759;DHT22;36334;51.366;0.020;2022-07-01T10:15:34;19.80;96.30
31759;DHT22;36334;51.366;0.020;2022-07-01T10:18:25;19.90;96.20
31759;DHT22;36334;51.366;0.020;2022-07-01T10:21:26;19.90;96.00
31759;DHT22;36334;51.366;0.020;2022-07-01T10:24:15;20.00;95.90
31759;DHT22;36334;51.366;0.020;2022-07-01T10:27:22;20.00;95.60
31759;DHT22;36334;51.366;0.020;2022-07-01T10:30:14;20.00;95.50
31759;DHT22;36334;51.366;0.020;2022-07-01T10:33:01;19.90;95.50
31759;DHT22;36334;51.366;0.020;2022-07-01T10:35:51;19.90;95.60
31759;DHT22;36334;51.366;0.020;2022-07-01T10:42:03;19.90;95.40
31759;DHT22;36334;51.366;0.020;2022-07-01T10:45:10;19.90;95.20
31759;DHT22;36334;51.366;0.020;2022-07-01T10:48:20;20.00;95.10
31759;DHT22;36334;51.366;0.020;2022-07-01T10:51:06;20.10;94.90
31759;DHT22;36334;51.366;0.020;2022-07-01T10:53:53;20.20;94.80
31759;DHT22;36334;51.366;0.020;2022-07-01T10:56:42;20.10;94.70
31759;DHT22;36334;51.366;0.020;2022-07-01T10:59:28;20.00;94.70
31759;DHT22;36334;51.366;0.020;2022-07-01T11:02:22;20.00;94.70
31759;DHT22;36334;51.366;0.020;2022-07-01T11:05:13;20.10;94.80
31759;DHT22;36334;51.366;0.020;2022-07-01T11:07:59;20.30;94.70
31759;DHT22;36334;51.366;0.020;2022-07-01T11:10:49;20.50;94.60
31759;DHT22;36334;51.366;0.020;2022-07-01T11:13:37;20.60;94.40
31759;DHT22;36334;51.366;0.020;2022-07-01T11:16:24;20.80;94.20
31759;DHT22;36334;51.366;0.020;2022-07-01T11:19:10;20.90;93.80
31759;DHT22;36334;51.366;0.020;2022-07-01T11:21:57;21.10;93.40
31759;DHT22;36334;51.366;0.020;2022-07-01T11:24:43;21.20;92.90
31759;DHT22;36334;51.366;0.020;2022-07-01T11:27:30;21.20;92.30
31759;DHT22;36334;51.366;0.020;2022-07-01T11:30:19;21.20;91.80
31759;DHT22;36334;51.366;0.020;2022-07-01T11:33:09;21.30;91.70
31759;DHT22;36334;51.366;0.020;2022-07-01T11:35:58;21.40;91.60
31759;DHT22;36334;51.366;0.020;2022-07-01T11:39:03;21.40;91.50
31759;DHT22;36334;51.366;0.020;2022-07-01T11:42:09;21.40;91.50
31759;DHT22;36334;51.366;0.020;2022-07-01T11:44:55;21.40;91.60
31759;DHT22;36334;51.366;0.020;2022-07-01T11:47:41;21.50;91.20
31759;DHT22;36334;51.366;0.020;2022-07-01T11:50:27;21.60;90.90
31759;DHT22;36334;51.366;0.020;2022-07-01T11:53:13;21.70;90.60
31759;DHT22;36334;51.366;0.020;2022-07-01T11:56:00;21.90;90.00
31759;DHT22;36334;51.366;0.020;2022-07-01T11:58:49;21.90;90.00
31759;DHT22;36334;51.366;0.020;2022-07-01T12:01:37;21.90;89.10
31759;DHT22;36334;51.366;0.020;2022-07-01T12:04:23;21.90;88.70
31759;DHT22;36334;51.366;0.020;2022-07-01T12:07:12;21.90;88.00
31759;DHT22;36334;51.366;0.020;2022-07-01T12:09:59;21.80;88.50
31759;DHT22;36334;51.366;0.020;2022-07-01T12:12:47;21.70;89.30
31759;DHT22;36334;51.366;0.020;2022-07-01T12:15:33;21.60;89.80
31759;DHT22;36334;51.366;0.020;2022-07-01T12:18:19;21.40;90.00
31759;DHT22;36334;51.366;0.020;2022-07-01T12:21:06;21.30;90.10
31759;DHT22;36334;51.366;0.020;2022-07-01T12:24:11;21.30;90.40
31759;DHT22;36334;51.366;0.020;2022-07-01T12:32:35;21.20;90.70
31759;DHT22;36334;51.366;0.020;2022-07-01T12:35:25;21.20;90.70
31759;DHT22;36334;51.366;0.020;2022-07-01T12:38:20;21.20;90.60
31759;DHT22;36334;51.366;0.020;2022-07-01T12:41:35;21.20;90.70
31759;DHT22;36334;51.366;0.020;2022-07-01T12:44:25;21.20;90.30
31759;DHT22;36334;51.366;0.020;2022-07-01T12:47:29;21.10;90.20
31759;DHT22;36334;51.366;0.020;2022-07-01T12:50:21;21.10;90.20
31759;DHT22;36334;51.366;0.020;2022-07-01T12:53:10;21.10;90.20
31759;DHT22;36334;51.366;0.020;2022-07-01T12:55:57;21.10;90.10
31759;DHT22;36334;51.366;0.020;2022-07-01T12:58:46;21.20;89.70
31759;DHT22;36334;51.366;0.020;2022-07-01T13:01:33;21.30;89.50
31759;DHT22;36334;51.366;0.020;2022-07-01T13:04:27;21.40;89.60
31759;DHT22;36334;51.366;0.020;2022-07-01T13:07:14;21.50;90.00
31759;DHT22;36334;51.366;0.020;2022-07-01T13:10:00;21.60;90.10
31759;DHT22;36334;51.366;0.020;2022-07-01T13:12:47;21.60;90.10
31759;DHT22;36334;51.366;0.020;2022-07-01T13:15:34;21.50;90.00
31759;DHT22;36334;51.366;0.020;2022-07-01T13:18:20;21.60;90.00
31759;DHT22;36334;51.366;0.020;2022-07-01T13:21:06;21.60;89.30
31759;DHT22;36334;51.366;0.020;2022-07-01T13:23:53;21.70;88.10
31759;DHT22;36334;51.366;0.020;2022-07-01T13:26:59;21.80;87.50
31759;DHT22;36334;51.366;0.020;2022-07-01T13:29:46;21.90;87.20
31759;DHT22;36334;51.366;0.020;2022-07-01T13:32:32;22.20;86.50
31759;DHT22;36334;51.366;0.020;2022-07-01T13:35:21;22.40;86.20
31759;DHT22;36334;51.366;0.020;2022-07-01T13:38:08;22.70;86.30
31759;DHT22;36334;51.366;0.020;2022-07-01T13:40:54;23.00;85.50
31759;DHT22;36334;51.366;0.020;2022-07-01T13:43:41;23.20;84.90
31759;DHT22;36334;51.366;0.020;2022-07-01T13:46:27;23.30;83.30
31759;DHT22;36334;51.366;0.020;2022-07-01T13:49:14;23.30;83.10
31759;DHT22;36334;51.366;0.020;2022-07-01T13:52:00;23.10;83.40
31759;DHT22;36334;51.366;0.020;2022-07-01T13:54:47;22.80;83.70
31759;DHT22;36334;51.366;0.020;2022-07-01T13:57:33;22.60;84.50
31759;DHT22;36334;51.366;0.020;2022-07-01T14:00:19;22.40;84.90
31759;DHT22;36334;51.366;0.020;2022-07-01T14:03:05;22.30;85.20
31759;DHT22;36334;51.366;0.020;2022-07-01T14:05:52;22.40;85.00
31759;DHT22;36334;51.366;0.020;2022-07-01T14:08:38;22.60;84.80
31759;DHT22;36334;51.366;0.020;2022-07-01T14:11:25;22.80;84.40
31759;DHT22;36334;51.366;0.020;2022-07-01T14:14:11;22.90;84.00
31759;DHT22;36334;51.366;0.020;2022-07-01T14:16:57;22.90;84.70
31759;DHT22;36334;51.366;0.020;2022-07-01T14:19:44;22.70;84.10
31759;DHT22;36334;51.366;0.020;2022-07-01T14:22:31;22.50;84.30
31759;DHT22;36334;51.366;0.020;2022-07-01T14:25:17;22.30;84.60
31759;DHT22;36334;51.366;0.020;2022-07-01T14:28:03;22.30;85.30
31759;DHT22;36334;51.366;0.020;2022-07-01T14:30:50;22.30;85.00
31759;DHT22;36334;51.366;0.020;2022-07-01T14:33:36;22.20;85.20
31759;DHT22;36334;51.366;0.020;2022-07-01T14:36:22;22.20;85.20
31759;DHT22;36334;51.366;0.020;2022-07-01T14:39:08;22.20;85.10
31759;DHT22;36334;51.366;0.020;2022-07-01T14:41:55;22.20;85.20
31759;DHT22;36334;51.366;0.020;2022-07-01T14:44:42;22.50;84.70
31759;DHT22;36334;51.366;0.020;2022-07-01T14:47:28;22.70;84.40
31759;DHT22;36334;51.366;0.020;2022-07-01T14:50:14;23.00;84.00
31759;DHT22;36334;51.366;0.020;2022-07-01T14:53:00;23.40;83.60
31759;DHT22;36334;51.366;0.020;2022-07-01T14:55:46;23.80;82.80
31759;DHT22;36334;51.366;0.020;2022-07-01T14:58:32;24.10;82.10
31759;DHT22;36334;51.366;0.020;2022-07-01T15:01:18;24.40;81.70
31759;DHT22;36334;51.366;0.020;2022-07-01T15:04:05;24.60;80.80
31759;DHT22;36334;51.366;0.020;2022-07-01T15:10:08;25.10;79.90
31759;DHT22;36334;51.366;0.020;2022-07-01T15:12:54;25.40;79.30
31759;DHT22;36334;51.366;0.020;2022-07-01T15:15:40;25.70;78.40
31759;DHT22;36334;51.366;0.020;2022-07-01T15:18:26;26.40;78.10
31759;DHT22;36334;51.366;0.020;2022-07-01T15:21:12;27.30;77.00
31759;DHT22;36334;51.366;0.020;2022-07-01T15:23:58;28.00;75.70
31759;DHT22;36334;51.366;0.020;2022-07-01T15:26:45;28.90;74.90
31759;DHT22;36334;51.366;0.020;2022-07-01T15:29:32;29.50;71.90
31759;DHT22;36334;51.366;0.020;2022-07-01T15:32:18;30.00;71.00
31759;DHT22;36334;51.366;0.020;2022-07-01T15:35:05;30.20;70.80
31759;DHT22;36334;51.366;0.020;2022-07-01T15:37:51;30.80;71.00
31759;DHT22;36334;51.366;0.020;2022-07-01T15:40:37;31.10;69.80
31759;DHT22;36334;51.366;0.020;2022-07-01T15:43:24;30.70;68.60
31759;DHT22;36334;51.366;0.020;2022-07-01T15:46:09;30.20;68.70
31759;DHT22;36334;51.366;0.020;2022-07-01T15:48:56;30.30;68.70
31759;DHT22;36334;51.366;0.020;2022-07-01T15:51:41;30.70;68.30
31759;DHT22;36334;51.366;0.020;2022-07-01T15:54:28;31.10;67.70
31759;DHT22;36334;51.366;0.020;2022-07-01T15:57:15;31.60;67.00
31759;DHT22;36334;51.366;0.020;2022-07-01T16:00:00;31.20;65.40
31759;DHT22;36334;51.366;0.020;2022-07-01T16:02:49;31.20;65.80
31759;DHT22;36334;51.366;0.020;2022-07-01T16:05:35;31.70;65.90
31759;DHT22;36334;51.366;0.020;2022-07-01T16:08:36;32.40;64.80
31759;DHT22;36334;51.366;0.020;2022-07-01T16:11:22;32.90;63.40
31759;DHT22;36334;51.366;0.020;2022-07-01T16:14:12;33.20;63.30
31759;DHT22;36334;51.366;0.020;2022-07-01T16:16:58;33.50;62.30
31759;DHT22;36334;51.366;0.020;2022-07-01T16:19:47;33.70;62.00
31759;DHT22;36334;51.366;0.020;2022-07-01T16:22:37;33.00;61.30
31759;DHT22;36334;51.366;0.020;2022-07-01T16:25:26;31.90;61.30
31759;DHT22;36334;51.366;0.020;2022-07-01T16:28:16;30.90;61.70
31759;DHT22;36334;51.366;0.020;2022-07-01T16:31:03;30.40;62.40
31759;DHT22;36334;51.366;0.020;2022-07-01T16:33:51;30.60;62.70
31759;DHT22;36334;51.366;0.020;2022-07-01T16:36:38;31.10;62.60
31759;DHT22;36334;51.366;0.020;2022-07-01T16:39:29;31.00;61.90
31759;DHT22;36334;51.366;0.020;2022-07-01T16:42:16;30.00;62.10
31759;DHT22;36334;51.366;0.020;2022-07-01T16:45:07;28.50;63.00
31759;DHT22;36334;51.366;0.020;2022-07-01T16:47:54;27.10;64.50
31759;DHT22;36334;51.366;0.020;2022-07-01T16:50:48;25.80;65.80
31759;DHT22;36334;51.366;0.020;2022-07-01T16:53:42;25.10;67.50
31759;DHT22;36334;51.366;0.020;2022-07-01T16:56:28;25.50;68.00
31759;DHT22;36334;51.366;0.020;2022-07-01T16:59:15;25.70;67.70
31759;DHT22;36334;51.366;0.020;2022-07-01T17:02:03;25.70;67.80
31759;DHT22;36334;51.366;0.020;2022-07-01T17:04:53;26.10;68.00
31759;DHT22;36334;51.366;0.020;2022-07-01T17:07:41;25.90;67.90
31759;DHT22;36334;51.366;0.020;2022-07-01T17:10:29;25.50;68.40
31759;DHT22;36334;51.366;0.020;2022-07-01T17:13:17;24.70;69.10
31759;DHT22;36334;51.366;0.020;2022-07-01T17:16:03;24.00;70.10
31759;DHT22;36334;51.366;0.020;2022-07-01T17:18:50;23.50;71.20
31759;DHT22;36334;51.366;0.020;2022-07-01T17:21:44;23.20;72.00
31759;DHT22;36334;51.366;0.020;2022-07-01T17:24:30;23.20;72.30
31759;DHT22;36334;51.366;0.020;2022-07-01T17:27:30;23.90;72.70
31759;DHT22;36334;51.366;0.020;2022-07-01T17:30:22;25.30;70.10
31759;DHT22;36334;51.366;0.020;2022-07-01T17:33:14;25.70;68.30
31759;DHT22;36334;51.366;0.020;2022-07-01T17:36:01;25.30;67.90
31759;DHT22;36334;51.366;0.020;2022-07-01T17:41:52;25.30;67.90
31759;DHT22;36334;51.366;0.020;2022-07-01T17:44:39;25.50;67.50
31759;DHT22;36334;51.366;0.020;2022-07-01T17:47:27;25.90;67.50
31759;DHT22;36334;51.366;0.020;2022-07-01T17:50:13;26.30;67.10
31759;DHT22;36334;51.366;0.020;2022-07-01T17:53:00;26.00;66.90
31759;DHT22;36334;51.366;0.020;2022-07-01T17:55:47;25.30;67.50
31759;DHT22;36334;51.366;0.020;2022-07-01T17:58:40;24.50;68.70
31759;DHT22;36334;51.366;0.020;2022-07-01T18:01:32;23.70;69.80
31759;DHT22;36334;51.366;0.020;2022-07-01T18:04:20;23.10;70.80